createdAt,value
2022-12-03T00:01:57.949Z,25.53
2022-12-03T00:04:24.279Z,24.91
2022-12-03T00:06:50.588Z,25.55
2022-12-03T00:09:16.895Z,24.81
2022-12-03T00:11:43.231Z,25.30
2022-12-03T00:14:09.528Z,25.14
2022-12-03T00:16:35.843Z,25.81
2022-12-03T00:19:02.169Z,25.96
2022-12-03T00:21:28.464Z,26.65
2022-12-03T00:23:54.780Z,27.15
2022-12-03T00:26:21.153Z,25.72
2022-12-03T00:28:47.461Z,26.96
2022-12-03T00:31:13.853Z,26.62
2022-12-03T00:33:40.215Z,26.79
2022-12-03T00:36:06.519Z,27.02
2022-12-03T00:38:32.840Z,26.00
2022-12-03T00:40:59.155Z,26.74
2022-12-03T00:43:25.463Z,25.87
2022-12-03T00:45:51.764Z,26.17
2022-12-03T00:48:18.085Z,26.46
2022-12-03T00:50:44.385Z,26.99
2022-12-03T00:53:10.693Z,26.64
2022-12-03T00:55:37.020Z,26.72
2022-12-03T00:58:03.323Z,26.79
2022-12-03T01:00:29.623Z,27.43
2022-12-03T01:02:55.996Z,27.23
2022-12-03T01:05:22.297Z,27.10
2022-12-03T01:07:48.663Z,27.25
2022-12-03T01:10:15.045Z,26.11
2022-12-03T01:12:41.346Z,27.19
2022-12-03T01:15:07.650Z,27.49
2022-12-03T01:17:33.972Z,28.28
2022-12-03T01:20:00.290Z,27.23
2022-12-03T01:22:26.608Z,27.16
2022-12-03T01:24:53.233Z,28.84
2022-12-03T01:27:19.716Z,27.63
2022-12-03T01:29:46.019Z,28.39
2022-12-03T01:32:12.395Z,27.27
2022-12-03T01:34:38.699Z,28.13
2022-12-03T01:37:05.014Z,28.98
2022-12-03T01:39:31.347Z,29.00
2022-12-03T01:41:57.653Z,29.88
2022-12-03T01:44:23.970Z,29.50
2022-12-03T01:46:50.377Z,28.80
2022-12-03T01:49:16.747Z,28.23
2022-12-03T01:51:43.045Z,28.72
2022-12-03T01:54:09.374Z,28.96
2022-12-03T01:56:35.678Z,29.06
2022-12-03T01:59:01.981Z,29.25
2022-12-03T02:01:28.325Z,28.38
2022-12-03T02:03:54.684Z,29.18
2022-12-03T02:06:21.044Z,28.56
2022-12-03T02:08:47.375Z,29.02
2022-12-03T02:11:13.671Z,28.74
2022-12-03T02:13:39.978Z,29.17
2022-12-03T02:16:06.345Z,28.57
2022-12-03T02:18:32.738Z,28.09
2022-12-03T02:20:59.046Z,28.03
2022-12-03T02:23:25.397Z,27.95
2022-12-03T02:25:51.693Z,28.12
2022-12-03T02:28:17.990Z,27.28
2022-12-03T02:30:44.307Z,27.68
2022-12-03T02:33:10.621Z,27.11
2022-12-03T02:35:36.930Z,26.59
2022-12-03T02:38:03.304Z,26.90
2022-12-03T02:40:29.624Z,26.52
2022-12-03T02:42:55.936Z,25.98
2022-12-03T02:45:22.263Z,25.63
2022-12-03T02:47:48.577Z,26.24
2022-12-03T02:50:14.879Z,26.10
2022-12-03T02:52:41.200Z,26.31
2022-12-03T02:55:07.510Z,26.81
2022-12-03T02:57:33.807Z,27.75
2022-12-03T03:00:00.147Z,26.92
2022-12-03T03:02:26.597Z,27.75
2022-12-03T03:04:53.183Z,28.98
2022-12-03T03:07:19.724Z,29.27
2022-12-03T03:09:46.031Z,29.43
2022-12-03T03:12:12.355Z,29.45
2022-12-03T03:14:38.683Z,28.34
2022-12-03T03:17:04.986Z,29.22
2022-12-03T03:19:31.280Z,29.08
2022-12-03T03:21:57.613Z,29.15
2022-12-03T03:24:23.913Z,29.41
2022-12-03T03:26:50.223Z,28.83
2022-12-03T03:29:16.539Z,29.63
2022-12-03T03:31:42.908Z,28.92
2022-12-03T03:34:09.255Z,31.05
2022-12-03T03:36:35.578Z,30.72
2022-12-03T03:39:01.884Z,30.83
2022-12-03T03:41:28.190Z,30.90
2022-12-03T03:43:54.551Z,30.98
2022-12-03T03:46:20.907Z,31.05
2022-12-03T03:48:47.255Z,31.94
2022-12-03T03:51:13.608Z,30.95
2022-12-03T03:53:39.934Z,31.27
2022-12-03T03:56:06.281Z,32.22
2022-12-03T03:58:32.613Z,31.12
2022-12-03T04:00:58.974Z,31.64
2022-12-03T04:03:25.341Z,31.63
2022-12-03T04:05:51.716Z,31.97
2022-12-03T04:08:18.047Z,32.20
2022-12-03T04:10:44.381Z,32.21
2022-12-03T04:13:10.701Z,32.96
2022-12-03T04:15:37.113Z,32.41
2022-12-03T04:18:03.411Z,32.70
2022-12-03T04:20:29.740Z,32.12
2022-12-03T04:22:56.052Z,32.52
2022-12-03T04:25:22.369Z,32.29
2022-12-03T04:27:48.687Z,31.90
2022-12-03T04:30:14.982Z,32.26
2022-12-03T04:32:41.284Z,32.38
2022-12-03T04:35:07.673Z,32.64
2022-12-03T04:37:33.985Z,32.62
2022-12-03T04:40:00.287Z,31.77
2022-12-03T04:42:26.617Z,32.87
2022-12-03T04:44:53.083Z,33.16
2022-12-03T04:47:19.560Z,32.67
2022-12-03T04:49:45.915Z,32.59
2022-12-03T04:52:12.207Z,33.00
2022-12-03T04:54:38.507Z,32.10
2022-12-03T04:57:04.822Z,32.54
2022-12-03T04:59:31.136Z,32.10
2022-12-03T05:01:57.436Z,31.55
2022-12-03T05:04:23.754Z,32.16
2022-12-03T05:06:50.057Z,32.62
2022-12-03T05:09:16.361Z,31.97
2022-12-03T05:11:42.674Z,31.54
2022-12-03T05:14:08.971Z,32.73
2022-12-03T05:16:35.340Z,32.46
2022-12-03T05:19:01.725Z,32.29
2022-12-03T05:21:28.027Z,31.89
2022-12-03T05:23:54.320Z,31.80
2022-12-03T05:26:20.642Z,31.49
2022-12-03T05:28:46.957Z,31.16
2022-12-03T05:31:13.294Z,31.34
2022-12-03T05:33:44.137Z,30.61
2022-12-03T05:36:10.918Z,30.87
2022-12-03T05:38:37.230Z,29.97
2022-12-03T05:41:03.553Z,30.49
2022-12-03T05:43:29.879Z,31.07
2022-12-03T05:45:56.219Z,31.33
2022-12-03T05:48:22.567Z,31.94
2022-12-03T05:50:48.865Z,31.48
2022-12-03T05:53:15.157Z,30.89
2022-12-03T05:55:41.505Z,31.91
2022-12-03T05:58:07.800Z,31.88
2022-12-03T06:00:39.090Z,31.44
2022-12-03T06:03:08.481Z,31.50
2022-12-03T06:05:34.882Z,31.09
2022-12-03T06:08:01.225Z,31.93
2022-12-03T06:10:27.614Z,31.71
2022-12-03T06:12:53.918Z,31.85
2022-12-03T06:15:20.223Z,31.52
2022-12-03T06:17:46.552Z,31.92
2022-12-03T06:20:12.863Z,32.38
2022-12-03T06:22:39.176Z,33.07
2022-12-03T06:25:07.312Z,32.31
2022-12-03T06:27:33.749Z,31.99
2022-12-03T06:30:00.041Z,32.01
2022-12-03T06:32:26.376Z,31.35
2022-12-03T06:34:53.054Z,31.96
2022-12-03T06:37:19.583Z,31.35
2022-12-03T06:39:45.926Z,30.70
2022-12-03T06:42:12.232Z,31.25
2022-12-03T06:44:38.539Z,31.68
2022-12-03T06:47:04.909Z,30.70
2022-12-03T06:49:31.214Z,30.96
2022-12-03T06:51:57.524Z,31.32
2022-12-03T06:54:23.840Z,31.13
2022-12-03T06:56:50.141Z,30.52
2022-12-03T06:59:16.462Z,30.24
2022-12-03T07:01:42.946Z,31.15
2022-12-03T07:04:09.299Z,29.79
2022-12-03T07:06:35.612Z,29.94
2022-12-03T07:09:02.006Z,30.43
2022-12-03T07:11:28.316Z,30.94
2022-12-03T07:13:54.625Z,31.71
2022-12-03T07:16:20.983Z,31.98
2022-12-03T07:18:47.306Z,31.22
2022-12-03T07:21:13.604Z,32.64
2022-12-03T07:23:39.935Z,32.63
2022-12-03T07:26:06.274Z,32.43
2022-12-03T07:28:32.558Z,31.53
2022-12-03T07:30:58.934Z,31.92
2022-12-03T07:33:25.256Z,31.73
2022-12-03T07:35:51.565Z,34.10
2022-12-03T07:38:17.892Z,32.56
2022-12-03T07:40:44.212Z,32.61
2022-12-03T07:43:10.522Z,33.20
2022-12-03T07:45:36.857Z,31.84
2022-12-03T07:48:03.164Z,32.59
2022-12-03T07:50:29.494Z,31.94
2022-12-03T07:52:55.830Z,30.43
2022-12-03T07:55:22.138Z,30.63
2022-12-03T07:57:48.443Z,31.83
2022-12-03T08:00:14.784Z,32.83
2022-12-03T08:02:41.206Z,33.88
2022-12-03T08:05:07.582Z,33.89
2022-12-03T08:07:33.996Z,36.59
2022-12-03T08:10:00.331Z,34.87
2022-12-03T08:12:26.645Z,30.06
2022-12-03T08:14:53.285Z,29.76
2022-12-03T08:17:19.819Z,30.45
2022-12-03T08:19:46.166Z,30.67
2022-12-03T08:22:12.510Z,31.23
2022-12-03T08:24:38.813Z,30.83
2022-12-03T08:27:05.120Z,31.67
2022-12-03T08:29:31.762Z,32.04
2022-12-03T08:31:58.104Z,32.87
2022-12-03T08:34:24.440Z,32.35
2022-12-03T08:36:50.832Z,30.69
2022-12-03T08:39:17.135Z,32.73
2022-12-03T08:41:43.592Z,32.75
2022-12-03T08:44:09.915Z,30.56
2022-12-03T08:46:36.233Z,29.58
2022-12-03T08:49:02.537Z,29.48
2022-12-03T08:51:28.872Z,29.54
2022-12-03T08:54:01.140Z,28.21
2022-12-03T08:56:27.992Z,28.76
2022-12-03T08:58:54.311Z,32.24
2022-12-03T09:01:20.742Z,30.40
2022-12-03T09:03:47.165Z,29.48
2022-12-03T09:06:13.519Z,29.95
2022-12-03T09:08:39.833Z,28.33
2022-12-03T09:11:06.131Z,30.01
2022-12-03T09:13:32.548Z,34.62
2022-12-03T09:15:58.850Z,36.03
2022-12-03T09:18:25.327Z,33.21
2022-12-03T09:20:51.652Z,31.80
2022-12-03T09:23:17.989Z,31.48
2022-12-03T09:25:44.326Z,30.49
2022-12-03T09:28:10.670Z,30.53
2022-12-03T09:30:36.965Z,30.97
2022-12-03T09:33:03.277Z,31.24
2022-12-03T09:35:29.802Z,30.28
2022-12-03T09:37:56.176Z,30.28
2022-12-03T09:40:22.511Z,29.09
2022-12-03T09:42:48.885Z,29.63
2022-12-03T09:45:15.181Z,29.08
2022-12-03T09:47:56.631Z,30.33
2022-12-03T09:50:22.953Z,28.49
2022-12-03T09:52:49.264Z,28.22
2022-12-03T09:55:15.587Z,27.61
2022-12-03T09:57:41.886Z,29.27
2022-12-03T10:00:08.179Z,29.36
2022-12-03T10:02:34.516Z,29.14
2022-12-03T10:05:00.898Z,29.98
2022-12-03T10:07:27.353Z,29.36
2022-12-03T10:09:53.989Z,29.30
2022-12-03T10:12:20.546Z,28.90
2022-12-03T10:14:46.852Z,28.34
2022-12-03T10:17:13.337Z,27.98
2022-12-03T10:19:39.736Z,28.45
2022-12-03T10:22:06.051Z,28.26
2022-12-03T10:24:32.404Z,28.24
2022-12-03T10:26:58.722Z,28.77
2022-12-03T10:29:31.333Z,28.13
2022-12-03T10:31:59.794Z,28.20
2022-12-03T10:34:26.320Z,27.77
2022-12-03T10:36:53.069Z,27.89
2022-12-03T10:39:19.404Z,28.19
2022-12-03T10:41:45.801Z,29.39
2022-12-03T10:44:12.159Z,30.47
2022-12-03T10:46:38.627Z,28.60
2022-12-03T10:49:05.039Z,28.88
2022-12-03T10:51:31.335Z,28.72
2022-12-03T10:53:57.672Z,27.92
2022-12-03T10:56:24.014Z,27.40
2022-12-03T10:58:50.530Z,27.62
2022-12-03T11:01:16.944Z,28.84
2022-12-03T11:03:43.309Z,28.22
2022-12-03T11:06:09.653Z,28.04
2022-12-03T11:08:35.983Z,27.60
2022-12-03T11:11:02.292Z,29.33
2022-12-03T11:13:28.601Z,28.93
2022-12-03T11:15:55.022Z,28.02
2022-12-03T11:18:21.378Z,28.45
2022-12-03T11:20:47.703Z,28.31
2022-12-03T11:23:14.063Z,28.31
2022-12-03T11:25:40.379Z,28.24
2022-12-03T11:28:06.675Z,27.59
2022-12-03T11:30:33.005Z,26.95
2022-12-03T11:32:59.317Z,27.60
2022-12-03T11:35:25.629Z,28.31
2022-12-03T11:37:51.970Z,28.14
2022-12-03T11:40:18.285Z,29.33
2022-12-03T11:42:44.595Z,29.79
2022-12-03T11:45:10.954Z,29.10
2022-12-03T11:47:37.270Z,28.69
2022-12-03T11:50:03.588Z,29.06
2022-12-03T11:52:29.918Z,28.83
2022-12-03T11:54:56.225Z,29.67
2022-12-03T11:57:22.537Z,31.14
2022-12-03T11:59:48.854Z,30.72
2022-12-03T12:02:15.160Z,30.79
2022-12-03T12:04:41.497Z,31.67
2022-12-03T12:07:07.891Z,30.31
2022-12-03T12:09:34.192Z,30.54
2022-12-03T12:12:00.499Z,29.25
2022-12-03T12:14:26.831Z,27.57
2022-12-03T12:16:53.153Z,28.70
2022-12-03T12:19:19.462Z,27.86
2022-12-03T12:21:45.783Z,27.84
2022-12-03T12:24:12.094Z,27.53
2022-12-03T12:26:38.407Z,29.19
2022-12-03T12:29:04.766Z,28.16
2022-12-03T12:31:31.153Z,27.04
2022-12-03T12:33:57.495Z,27.13
2022-12-03T12:36:23.807Z,27.14
2022-12-03T12:38:50.102Z,27.71
2022-12-03T12:41:16.410Z,27.51
2022-12-03T12:43:42.724Z,27.70
2022-12-03T12:46:38.728Z,26.99
2022-12-03T12:48:59.499Z,27.34
2022-12-03T12:51:26.174Z,26.27
2022-12-03T12:53:52.477Z,28.28
2022-12-03T12:56:18.791Z,31.35
2022-12-03T12:58:45.084Z,30.07
2022-12-03T13:01:11.469Z,28.06
2022-12-03T13:03:37.861Z,28.80
2022-12-03T13:06:04.167Z,28.45
2022-12-03T13:08:30.458Z,26.86
2022-12-03T13:10:56.783Z,29.23
2022-12-03T13:13:23.103Z,27.18
2022-12-03T13:15:49.549Z,27.87
2022-12-03T13:18:15.864Z,27.59
2022-12-03T13:20:42.163Z,27.73
2022-12-03T13:23:08.467Z,27.01
2022-12-03T13:25:58.897Z,27.90
2022-12-03T13:28:21.058Z,27.28
2022-12-03T13:30:47.398Z,27.38
2022-12-03T13:33:13.691Z,27.12
2022-12-03T13:35:39.981Z,27.43
2022-12-03T13:38:06.302Z,26.87
2022-12-03T13:40:32.599Z,26.56
2022-12-03T13:42:58.891Z,26.69
2022-12-03T13:45:25.349Z,26.56
2022-12-03T13:47:51.734Z,26.42
2022-12-03T13:50:18.022Z,27.14
2022-12-03T13:52:44.334Z,29.38
2022-12-03T13:55:10.631Z,27.09
2022-12-03T13:57:36.934Z,28.04
2022-12-03T14:00:03.240Z,27.32
2022-12-03T14:02:29.605Z,26.84
2022-12-03T14:05:00.263Z,26.20
2022-12-03T14:07:27.199Z,26.36
2022-12-03T14:09:53.819Z,25.90
2022-12-03T14:12:20.326Z,27.10
2022-12-03T14:14:46.648Z,27.10
2022-12-03T14:17:13.053Z,27.22
2022-12-03T14:19:39.426Z,26.58
2022-12-03T14:22:05.738Z,25.96
2022-12-03T14:24:32.027Z,26.49
2022-12-03T14:26:58.321Z,27.06
2022-12-03T14:29:24.639Z,25.78
2022-12-03T14:31:50.988Z,26.59
2022-12-03T14:34:17.305Z,26.54
2022-12-03T14:36:43.646Z,25.37
2022-12-03T14:39:09.938Z,25.56
2022-12-03T14:41:36.222Z,25.52
2022-12-03T14:44:02.541Z,24.55
2022-12-03T14:46:28.911Z,25.14
2022-12-03T14:48:55.203Z,25.10
2022-12-03T14:51:21.507Z,24.84
2022-12-03T14:53:48.013Z,24.75
2022-12-03T14:56:14.350Z,24.64
2022-12-03T14:58:40.657Z,23.26
2022-12-03T15:01:06.984Z,24.22
2022-12-03T15:03:33.323Z,25.06
2022-12-03T15:05:59.625Z,35.88
2022-12-03T15:08:25.906Z,25.63
2022-12-03T15:10:52.229Z,24.82
2022-12-03T15:13:18.561Z,26.01
2022-12-03T15:15:44.981Z,24.95
2022-12-03T15:18:11.286Z,26.11
2022-12-03T15:20:37.623Z,24.36
2022-12-03T15:23:03.929Z,25.24
2022-12-03T15:25:30.228Z,23.94
2022-12-03T15:27:56.556Z,24.19
2022-12-03T15:30:22.870Z,25.01
2022-12-03T15:32:49.206Z,25.57
2022-12-03T15:35:15.543Z,25.21
2022-12-03T15:37:41.862Z,26.27
2022-12-03T15:40:08.167Z,25.56
2022-12-03T15:42:34.540Z,25.08
2022-12-03T15:45:00.850Z,24.33
2022-12-03T15:47:27.159Z,24.66
2022-12-03T15:49:53.629Z,25.26
2022-12-03T15:52:20.138Z,23.80
2022-12-03T15:54:46.436Z,23.59
2022-12-03T15:57:12.782Z,23.49
2022-12-03T15:59:39.097Z,23.97
2022-12-03T16:02:05.530Z,24.10
2022-12-03T16:04:31.997Z,24.97
2022-12-03T16:06:58.304Z,24.64
2022-12-03T16:09:27.409Z,23.42
2022-12-03T16:11:54.149Z,24.91
2022-12-03T16:14:20.465Z,25.98
2022-12-03T16:16:46.759Z,24.40
2022-12-03T16:19:13.096Z,24.63
2022-12-03T16:21:39.391Z,24.69
2022-12-03T16:24:05.687Z,24.59
2022-12-03T16:26:32.060Z,24.32
2022-12-03T16:28:58.409Z,24.46
2022-12-03T16:31:24.823Z,23.40
2022-12-03T16:33:51.184Z,22.22
2022-12-03T16:36:17.481Z,23.03
2022-12-03T16:38:43.792Z,20.63
2022-12-03T16:41:10.134Z,21.50
2022-12-03T16:43:36.444Z,22.00
2022-12-03T16:46:02.874Z,21.55
2022-12-03T16:48:29.305Z,21.66
2022-12-03T16:50:55.604Z,21.44
2022-12-03T16:53:21.914Z,21.62
2022-12-03T16:55:48.231Z,21.60
2022-12-03T16:58:14.533Z,21.75
2022-12-03T17:00:40.844Z,22.34
2022-12-03T17:03:07.222Z,23.55
2022-12-03T17:05:33.592Z,23.42
2022-12-03T17:07:59.979Z,23.05
2022-12-03T17:10:26.362Z,22.32
2022-12-03T17:13:10.049Z,23.74
2022-12-03T17:15:36.802Z,23.33
2022-12-03T17:18:03.149Z,22.66
2022-12-03T17:20:29.456Z,21.56
2022-12-03T17:22:55.781Z,22.05
2022-12-03T17:25:22.082Z,21.81
2022-12-03T17:27:48.393Z,22.38
2022-12-03T17:30:14.714Z,22.19
2022-12-03T17:32:41.055Z,23.93
2022-12-03T17:35:07.372Z,23.44
2022-12-03T17:37:33.696Z,22.70
2022-12-03T17:40:00.007Z,23.11
2022-12-03T17:42:26.320Z,21.62
2022-12-03T17:44:52.644Z,21.79
2022-12-03T17:47:21.282Z,21.83
2022-12-03T17:49:47.603Z,22.25
2022-12-03T17:52:13.968Z,21.58
2022-12-03T17:55:08.376Z,23.56
2022-12-03T17:57:26.581Z,23.46
2022-12-03T17:59:53.094Z,21.99
2022-12-03T18:02:19.661Z,22.02
2022-12-03T18:04:46.059Z,21.63
2022-12-03T18:07:12.360Z,21.65
2022-12-03T18:09:38.671Z,22.27
2022-12-03T18:12:04.985Z,22.33
2022-12-03T18:14:31.292Z,22.43
2022-12-03T18:16:57.590Z,23.19
2022-12-03T18:19:23.921Z,24.72
2022-12-03T18:21:50.240Z,22.62
2022-12-03T18:24:16.569Z,23.69
2022-12-03T18:26:42.914Z,23.28
2022-12-03T18:29:09.227Z,22.52
2022-12-03T18:31:35.596Z,22.43
2022-12-03T18:34:01.958Z,22.75
2022-12-03T18:36:28.272Z,22.75
2022-12-03T18:38:54.578Z,22.67
2022-12-03T18:41:20.906Z,22.07
2022-12-03T18:43:47.216Z,22.06
2022-12-03T18:46:31.163Z,23.74
2022-12-03T18:48:59.831Z,22.37
2022-12-03T18:51:26.141Z,22.13
2022-12-03T18:53:52.452Z,22.07
2022-12-03T18:56:18.824Z,22.45
2022-12-03T18:58:45.137Z,22.66
2022-12-03T19:01:11.512Z,22.40
2022-12-03T19:03:37.870Z,22.84
2022-12-03T19:06:04.256Z,22.29
2022-12-03T19:08:30.557Z,22.23
2022-12-03T19:10:56.890Z,23.57
2022-12-03T19:13:23.191Z,23.81
2022-12-03T19:15:49.652Z,25.06
2022-12-03T19:18:16.034Z,25.01
2022-12-03T19:20:42.329Z,24.13
2022-12-03T19:23:08.627Z,24.47
2022-12-03T19:25:34.948Z,22.98
2022-12-03T19:28:01.244Z,23.10
2022-12-03T19:30:27.534Z,23.76
2022-12-03T19:32:53.849Z,23.24
2022-12-03T19:35:20.134Z,22.80
2022-12-03T19:37:46.463Z,23.16
2022-12-03T19:40:12.790Z,23.23
2022-12-03T19:42:39.076Z,23.47
2022-12-03T19:45:05.423Z,24.61
2022-12-03T19:47:31.741Z,24.09
2022-12-03T19:49:58.086Z,24.39
2022-12-03T19:52:24.434Z,24.93
2022-12-03T19:54:50.951Z,26.35
2022-12-03T19:57:23.054Z,26.21
2022-12-03T19:59:49.864Z,26.30
2022-12-03T20:02:16.299Z,24.93
2022-12-03T20:04:42.747Z,26.44
2022-12-03T20:07:09.043Z,23.40
2022-12-03T20:09:35.362Z,24.56
2022-12-03T20:12:01.648Z,24.58
2022-12-03T20:14:27.940Z,25.26
2022-12-03T20:16:54.316Z,26.91
2022-12-03T20:19:20.658Z,25.31
2022-12-03T20:21:46.954Z,24.93
2022-12-03T20:24:13.266Z,24.71
2022-12-03T20:26:39.557Z,24.60
2022-12-03T20:29:05.841Z,25.28
2022-12-03T20:31:32.239Z,25.63
2022-12-03T20:33:58.605Z,25.70
2022-12-03T20:36:24.895Z,25.55
2022-12-03T20:38:51.210Z,26.23
2022-12-03T20:41:17.501Z,26.34
2022-12-03T20:43:43.791Z,26.80
2022-12-03T20:46:10.211Z,25.56
2022-12-03T20:48:36.564Z,26.46
2022-12-03T20:51:02.859Z,25.84
2022-12-03T20:53:29.190Z,26.31
2022-12-03T20:55:55.505Z,25.48
2022-12-03T20:58:21.833Z,26.18
2022-12-03T21:00:48.184Z,26.88
2022-12-03T21:03:14.540Z,27.30
2022-12-03T21:05:40.855Z,28.17
2022-12-03T21:08:07.368Z,26.63
2022-12-03T21:10:33.715Z,27.55
2022-12-03T21:13:00.026Z,27.61
2022-12-03T21:15:26.364Z,27.38
2022-12-03T21:17:52.742Z,29.53
2022-12-03T21:20:21.243Z,28.89
2022-12-03T21:22:47.818Z,26.60
2022-12-03T21:25:14.129Z,28.48
2022-12-03T21:27:40.435Z,27.60
2022-12-03T21:30:06.767Z,27.35
2022-12-03T21:32:33.086Z,27.98
2022-12-03T21:34:59.402Z,26.92
2022-12-03T21:37:25.724Z,26.55
2022-12-03T21:39:52.223Z,26.91
2022-12-03T21:42:36.684Z,26.00
2022-12-03T21:45:03.506Z,26.83
2022-12-03T21:47:35.086Z,26.63
2022-12-03T21:50:02.833Z,26.02
2022-12-03T21:52:29.147Z,25.98
2022-12-03T21:54:55.448Z,25.99
2022-12-03T21:57:21.774Z,25.42
2022-12-03T21:59:48.066Z,25.19
2022-12-03T22:02:14.420Z,27.34
2022-12-03T22:04:40.800Z,27.28
2022-12-03T22:07:07.107Z,26.74
2022-12-03T22:09:33.411Z,27.06
2022-12-03T22:11:59.773Z,26.92
2022-12-03T22:14:26.103Z,27.03
2022-12-03T22:16:52.434Z,25.78
2022-12-03T22:19:18.754Z,28.06
2022-12-03T22:21:45.072Z,28.94
2022-12-03T22:24:11.380Z,29.66
2022-12-03T22:26:37.711Z,27.72
2022-12-03T22:29:04.022Z,27.59
2022-12-03T22:31:30.361Z,26.79
2022-12-03T22:33:56.708Z,27.10
2022-12-03T22:36:23.017Z,26.84
2022-12-03T22:38:49.324Z,27.18
2022-12-03T22:41:15.657Z,27.26
2022-12-03T22:43:41.971Z,27.60
2022-12-03T22:46:08.340Z,27.66
2022-12-03T22:48:34.701Z,26.42
2022-12-03T22:51:01.018Z,26.59
2022-12-03T22:53:27.317Z,26.99
2022-12-03T22:55:53.636Z,26.14
2022-12-03T22:58:19.949Z,27.23
2022-12-03T23:00:46.257Z,27.19
2022-12-03T23:03:12.743Z,26.98
2022-12-03T23:05:39.196Z,27.79
2022-12-03T23:08:05.579Z,27.38
2022-12-03T23:10:34.054Z,27.57
2022-12-03T23:13:00.521Z,26.95
2022-12-03T23:15:26.835Z,27.02
2022-12-03T23:17:53.199Z,26.91
2022-12-03T23:20:19.524Z,27.30
2022-12-03T23:22:45.837Z,28.24
2022-12-03T23:25:12.168Z,27.48
2022-12-03T23:27:38.463Z,27.44
2022-12-03T23:30:04.772Z,26.68
2022-12-03T23:32:31.110Z,28.44
2022-12-03T23:34:57.423Z,27.01
2022-12-03T23:37:23.728Z,27.59
2022-12-03T23:39:50.119Z,27.92
2022-12-03T23:42:16.427Z,27.02
2022-12-03T23:44:42.739Z,28.33
2022-12-03T23:47:09.066Z,27.57
2022-12-03T23:49:35.384Z,27.19
2022-12-03T23:52:01.700Z,27.25
2022-12-03T23:54:28.029Z,27.23
2022-12-03T23:56:54.335Z,27.85
2022-12-03T23:59:20.645Z,27.84
